Bangor, Wisconsin
Current Conditions -  °F | °C
As of 11:53 PM on Monday 26 Jan 2015 (Local Time) from KLSE Reporting Station
Haze Haze  
Wind Chill: 30°   Ceiling: 3700
Heat Index: 30°   Visibility: 5mi
Dew Point: 27°   Wind: 3mph
Humidity: 88%   Direction: 300°WNW
Pressure: 29.95"   Gusts: NA
Location:  43.89°N, 90.99°W
Report Text: KLSE 270553Z AUTO 30003KT 5SM BR FEW025 OVC037 M01/M03 A2995 RMK AO2 SNE10 SLP155 P0000 60000 T10111028 11006 21011 410061067 53021
Loading
Personal Weather Stations






























Interactive Weather Map New forecast layout! Learn more

10-Day Weather Forecast

Advertisements
Track Severe Weather on mobile